createdAt,value
2023-01-20T00:01:50.824Z,87.07
2023-01-20T00:04:23.075Z,86.78
2023-01-20T00:07:09.160Z,86.74
2023-01-20T00:09:41.255Z,86.82
2023-01-20T00:12:11.986Z,86.91
2023-01-20T00:14:44.161Z,86.89
2023-01-20T00:17:16.649Z,86.95
2023-01-20T00:19:52.115Z,86.78
2023-01-20T00:22:24.734Z,86.79
2023-01-20T00:24:57.092Z,86.74
2023-01-20T00:27:32.651Z,86.63
2023-01-20T00:30:10.195Z,86.47
2023-01-20T00:32:44.870Z,86.09
2023-01-20T00:35:17.497Z,85.83
2023-01-20T00:37:53.137Z,86.04
2023-01-20T00:40:44.200Z,86.60
2023-01-20T00:43:16.634Z,86.89
2023-01-20T00:45:48.944Z,86.72
2023-01-20T00:48:25.712Z,86.64
2023-01-20T00:50:57.800Z,86.90
2023-01-20T00:53:30.279Z,86.92
2023-01-20T00:56:03.001Z,86.65
2023-01-20T00:58:59.369Z,86.36
2023-01-20T01:01:34.185Z,86.02
2023-01-20T01:04:09.464Z,86.20
2023-01-20T01:06:42.438Z,86.29
2023-01-20T01:09:15.682Z,86.63
2023-01-20T01:11:46.342Z,86.67
2023-01-20T01:14:18.862Z,86.56
2023-01-20T01:16:51.144Z,86.60
2023-01-20T01:19:23.369Z,86.59
2023-01-20T01:21:54.057Z,86.44
2023-01-20T01:24:26.259Z,86.55
2023-01-20T01:26:58.766Z,86.45
2023-01-20T01:29:45.345Z,86.36
2023-01-20T01:32:21.073Z,86.47
2023-01-20T01:34:53.542Z,86.76
2023-01-20T01:37:27.314Z,86.78
2023-01-20T01:39:59.801Z,87.01
2023-01-20T01:42:32.180Z,87.06
2023-01-20T01:45:23.956Z,86.93
2023-01-20T01:48:03.114Z,86.86
2023-01-20T01:50:40.934Z,86.31
2023-01-20T01:53:14.377Z,86.62
2023-01-20T01:55:52.836Z,86.90
2023-01-20T01:58:29.323Z,87.18
2023-01-20T02:01:04.806Z,87.11
2023-01-20T02:03:43.996Z,87.09
2023-01-20T02:06:27.078Z,87.00
2023-01-20T02:09:01.155Z,87.32
2023-01-20T02:11:43.875Z,87.52
2023-01-20T02:14:17.769Z,87.34
2023-01-20T02:17:02.701Z,87.28
2023-01-20T02:20:16.460Z,87.30
2023-01-20T02:22:52.538Z,87.53
2023-01-20T02:25:47.941Z,87.41
2023-01-20T02:28:47.023Z,87.34
2023-01-20T02:32:02.314Z,87.29
2023-01-20T02:34:39.630Z,87.47
2023-01-20T02:37:19.621Z,87.59
2023-01-20T02:40:19.548Z,87.42
2023-01-20T02:42:58.823Z,87.31
2023-01-20T02:45:36.745Z,87.33
2023-01-20T02:48:16.626Z,87.34
2023-01-20T02:50:59.586Z,87.15
2023-01-20T02:53:38.522Z,87.26
2023-01-20T02:56:12.566Z,87.53
2023-01-20T02:58:50.488Z,87.22
2023-01-20T03:01:28.474Z,87.10
2023-01-20T03:04:06.359Z,87.29
2023-01-20T03:06:42.081Z,87.26
2023-01-20T03:09:22.231Z,87.23
2023-01-20T03:11:58.713Z,86.78
2023-01-20T03:14:32.061Z,86.40
2023-01-20T03:17:07.268Z,86.60
2023-01-20T03:19:39.753Z,86.81
2023-01-20T03:22:12.102Z,87.03
2023-01-20T03:24:48.472Z,87.13
2023-01-20T03:27:20.869Z,86.98
2023-01-20T03:29:53.524Z,86.94
2023-01-20T03:32:29.499Z,86.79
2023-01-20T03:35:02.353Z,86.86
2023-01-20T03:37:39.421Z,86.94
2023-01-20T03:45:07.139Z,87.44
2023-01-20T03:47:59.720Z,87.55
2023-01-20T03:50:58.559Z,87.60
2023-01-20T03:53:37.534Z,87.52
2023-01-20T03:56:18.110Z,87.37
2023-01-20T03:58:54.749Z,87.80
2023-01-20T04:01:39.476Z,87.77
2023-01-20T04:04:15.865Z,87.63
2023-01-20T04:07:10.825Z,87.35
2023-01-20T04:09:47.512Z,86.97
2023-01-20T04:12:40.097Z,87.16
2023-01-20T04:15:14.085Z,87.40
2023-01-20T04:17:47.131Z,87.20
2023-01-20T04:20:38.678Z,86.84
2023-01-20T04:23:15.527Z,86.63
2023-01-20T04:26:08.421Z,86.65
2023-01-20T04:28:43.461Z,86.54
2023-01-20T04:31:29.713Z,86.07
2023-01-20T04:34:06.190Z,86.40
2023-01-20T04:36:38.281Z,86.68
2023-01-20T04:39:19.815Z,86.50
2023-01-20T04:42:13.472Z,86.19
2023-01-20T04:45:07.150Z,86.60
2023-01-20T04:47:59.875Z,87.19
2023-01-20T04:50:52.603Z,86.85
2023-01-20T04:53:36.511Z,86.55
2023-01-20T04:56:15.371Z,86.55
2023-01-20T04:59:01.603Z,86.94
2023-01-20T05:01:46.704Z,87.31
2023-01-20T05:04:19.157Z,87.35
2023-01-20T05:07:00.175Z,87.01
2023-01-20T05:09:45.479Z,86.38
2023-01-20T05:12:30.674Z,86.39
2023-01-20T05:15:02.983Z,86.36
2023-01-20T05:17:48.178Z,86.46
2023-01-20T05:20:39.063Z,86.42
2023-01-20T05:23:31.721Z,86.48
2023-01-20T05:26:12.852Z,86.16
2023-01-20T05:28:47.281Z,86.10
2023-01-20T05:31:19.672Z,85.85
2023-01-20T05:34:06.127Z,85.26
2023-01-20T05:36:38.303Z,85.67
2023-01-20T05:39:08.843Z,86.17
2023-01-20T05:41:55.163Z,86.36
2023-01-20T05:44:30.659Z,86.21
2023-01-20T05:47:02.727Z,85.93
2023-01-20T05:49:39.661Z,86.16
2023-01-20T05:52:21.491Z,86.39
2023-01-20T05:55:01.036Z,86.40
2023-01-20T05:57:42.426Z,86.81
2023-01-20T06:00:19.268Z,86.96
2023-01-20T06:02:51.631Z,86.63
2023-01-20T06:05:24.375Z,86.47
2023-01-20T06:07:58.024Z,86.36
2023-01-20T06:10:30.100Z,86.69
2023-01-20T06:13:02.411Z,86.94
2023-01-20T06:15:34.806Z,86.82
2023-01-20T06:18:12.857Z,86.70
2023-01-20T06:20:45.266Z,86.49
2023-01-20T06:23:31.554Z,85.96
2023-01-20T06:26:15.008Z,85.82
2023-01-20T06:29:02.575Z,86.00
2023-01-20T06:31:34.796Z,86.38
2023-01-20T06:34:21.717Z,86.69
2023-01-20T06:36:57.134Z,86.68
2023-01-20T06:39:40.645Z,86.61
2023-01-20T06:42:13.722Z,86.35
2023-01-20T06:45:07.191Z,86.51
2023-01-20T06:47:52.418Z,86.43
2023-01-20T06:50:24.678Z,86.47
2023-01-20T06:52:59.608Z,86.17
2023-01-20T06:55:32.117Z,86.27
2023-01-20T06:58:12.750Z,86.44
2023-01-20T07:01:11.223Z,86.50
2023-01-20T07:03:44.597Z,86.64
2023-01-20T07:06:32.804Z,86.41
2023-01-20T07:09:18.694Z,86.38
2023-01-20T07:11:50.871Z,86.56
2023-01-20T07:14:23.597Z,86.68
2023-01-20T07:17:16.033Z,86.59
2023-01-20T07:20:01.968Z,86.32
2023-01-20T07:22:54.312Z,85.82
2023-01-20T07:25:26.475Z,85.61
2023-01-20T07:28:01.847Z,85.89
2023-01-20T07:30:32.482Z,85.51
2023-01-20T07:33:07.646Z,85.37
2023-01-20T07:35:58.433Z,85.28
2023-01-20T07:38:41.029Z,84.94
2023-01-20T07:41:24.830Z,84.68
2023-01-20T07:44:17.709Z,84.80
2023-01-20T07:47:10.468Z,84.96
2023-01-20T07:49:56.821Z,85.22
2023-01-20T07:52:39.035Z,85.37
2023-01-20T07:55:14.443Z,85.29
2023-01-20T07:57:50.821Z,85.31
2023-01-20T08:00:43.403Z,85.24
2023-01-20T08:03:15.804Z,85.14
2023-01-20T08:06:08.731Z,84.96
2023-01-20T08:08:44.267Z,84.59
2023-01-20T08:11:33.486Z,84.54
2023-01-20T08:14:26.050Z,83.47
2023-01-20T08:16:56.781Z,83.34
2023-01-20T08:19:49.070Z,83.63
2023-01-20T08:22:21.435Z,83.44
2023-01-20T08:24:56.706Z,83.18
2023-01-20T08:27:32.410Z,83.02
2023-01-20T08:30:04.975Z,83.28
2023-01-20T08:32:48.281Z,83.36
2023-01-20T08:35:18.941Z,83.38
2023-01-20T08:38:11.563Z,83.82
2023-01-20T08:40:52.771Z,84.03
2023-01-20T08:43:45.567Z,83.83
2023-01-20T08:46:41.507Z,83.32
2023-01-20T08:49:16.781Z,83.01
2023-01-20T08:52:04.227Z,82.99
2023-01-20T08:54:41.881Z,82.86
2023-01-20T08:57:33.006Z,82.66
2023-01-20T09:00:26.619Z,83.04
2023-01-20T09:02:58.759Z,83.76
2023-01-20T09:05:31.205Z,83.96
2023-01-20T09:08:27.057Z,84.15
2023-01-20T09:11:05.060Z,83.83
2023-01-20T09:13:38.215Z,83.29
2023-01-20T09:16:13.066Z,83.29
2023-01-20T09:19:05.548Z,83.40
2023-01-20T09:21:56.499Z,83.33
2023-01-20T09:24:28.812Z,83.16
2023-01-20T09:27:12.061Z,82.71
2023-01-20T09:29:44.358Z,82.31
2023-01-20T09:32:17.004Z,82.45
2023-01-20T09:34:49.260Z,82.47
2023-01-20T09:37:39.424Z,82.11
2023-01-20T09:40:35.010Z,81.45
2023-01-20T09:43:46.211Z,80.86
2023-01-20T09:46:25.474Z,80.95
2023-01-20T09:49:21.643Z,81.45
2023-01-20T09:52:38.961Z,80.46
2023-01-20T09:55:20.810Z,80.21
2023-01-20T09:57:59.845Z,80.32
2023-01-20T10:00:35.740Z,79.40
2023-01-20T10:03:25.610Z,79.02
2023-01-20T10:06:12.711Z,78.70
2023-01-20T10:09:04.449Z,78.68
2023-01-20T10:11:41.542Z,78.30
2023-01-20T10:14:20.931Z,78.13
2023-01-20T10:17:02.407Z,78.19
2023-01-20T10:19:42.403Z,78.29
2023-01-20T10:22:28.949Z,78.21
2023-01-20T10:25:08.059Z,78.27
2023-01-20T10:27:46.257Z,78.28
2023-01-20T10:30:20.368Z,78.55
2023-01-20T10:33:06.743Z,78.28
2023-01-20T10:35:41.587Z,78.07
2023-01-20T10:38:25.868Z,78.31
2023-01-20T10:41:28.250Z,78.39
2023-01-20T10:44:01.576Z,78.25
2023-01-20T10:46:50.355Z,78.18
2023-01-20T10:49:46.091Z,78.46
2023-01-20T10:52:30.387Z,78.08
2023-01-20T10:55:16.516Z,78.17
2023-01-20T10:57:57.284Z,79.05
2023-01-20T11:00:35.848Z,78.54
2023-01-20T11:03:12.292Z,78.26
2023-01-20T11:05:52.143Z,78.92
2023-01-20T11:08:30.438Z,79.29
2023-01-20T11:11:11.092Z,79.65
2023-01-20T11:13:43.823Z,79.49
2023-01-20T11:16:24.736Z,79.46
2023-01-20T11:19:02.690Z,79.42
2023-01-20T11:21:37.278Z,79.68
2023-01-20T11:24:42.848Z,79.78
2023-01-20T11:27:18.768Z,79.62
2023-01-20T11:29:56.983Z,79.34
2023-01-20T11:32:35.994Z,78.62
2023-01-20T11:35:22.771Z,79.27
2023-01-20T11:37:57.451Z,79.63
2023-01-20T11:40:30.999Z,79.59
2023-01-20T11:43:03.509Z,80.13
2023-01-20T11:45:37.210Z,79.93
2023-01-20T11:48:21.615Z,79.65
2023-01-20T11:50:57.604Z,79.71
2023-01-20T11:53:32.091Z,79.63
2023-01-20T11:56:06.932Z,79.78
2023-01-20T11:58:54.891Z,79.71
2023-01-20T12:01:29.667Z,79.87
2023-01-20T12:04:28.016Z,79.79
2023-01-20T12:07:08.584Z,79.38
2023-01-20T12:09:44.998Z,79.23
2023-01-20T12:12:34.206Z,79.15
2023-01-20T12:15:13.210Z,78.50
2023-01-20T12:17:53.683Z,78.46
2023-01-20T12:20:45.614Z,77.43
2023-01-20T12:23:26.700Z,77.86
2023-01-20T12:26:21.143Z,77.77
2023-01-20T12:28:59.612Z,78.13
2023-01-20T12:31:37.368Z,77.78
2023-01-20T12:34:16.401Z,77.93
2023-01-20T12:37:01.495Z,77.71
2023-01-20T12:39:52.454Z,77.53
2023-01-20T12:42:52.938Z,77.78
2023-01-20T12:45:38.553Z,78.25
2023-01-20T12:48:27.068Z,78.54
2023-01-20T12:51:21.664Z,78.49
2023-01-20T12:54:08.324Z,78.84
2023-01-20T12:56:53.449Z,78.68
2023-01-20T12:59:38.661Z,78.73
2023-01-20T13:02:37.706Z,78.67
2023-01-20T13:05:35.135Z,79.21
2023-01-20T13:08:16.676Z,79.48
2023-01-20T13:11:03.582Z,79.53
2023-01-20T13:13:56.834Z,79.95
2023-01-20T13:16:38.096Z,80.12
2023-01-20T13:19:16.866Z,79.98
2023-01-20T13:22:07.011Z,79.69
2023-01-20T13:24:40.762Z,79.05
2023-01-20T13:27:13.986Z,78.60
2023-01-20T13:29:56.829Z,78.52
2023-01-20T13:32:35.825Z,78.84
2023-01-20T13:35:43.237Z,78.78
2023-01-20T13:38:30.883Z,78.98
2023-01-20T13:41:06.065Z,79.17
2023-01-20T13:43:53.087Z,79.22
2023-01-20T13:46:47.460Z,79.45
2023-01-20T13:49:45.804Z,79.82
2023-01-20T13:52:57.591Z,79.99
2023-01-20T13:55:52.574Z,80.15
2023-01-20T13:58:26.401Z,80.30
2023-01-20T14:01:00.713Z,80.31
2023-01-20T14:03:35.286Z,80.36
2023-01-20T14:06:19.495Z,80.55
2023-01-20T14:08:53.552Z,80.47
2023-01-20T14:11:27.576Z,80.60
2023-01-20T14:14:05.772Z,80.79
2023-01-20T14:16:44.834Z,81.03
2023-01-20T14:19:24.882Z,81.12
2023-01-20T14:21:58.964Z,81.16
2023-01-20T14:24:33.772Z,81.18
2023-01-20T14:27:16.453Z,81.28
2023-01-20T14:29:53.447Z,81.45
2023-01-20T14:32:28.458Z,81.60
2023-01-20T14:35:01.613Z,81.88
2023-01-20T14:37:36.683Z,82.04
2023-01-20T14:40:23.687Z,82.02
2023-01-20T14:43:00.434Z,82.38
2023-01-20T14:45:34.537Z,82.48
2023-01-20T14:48:07.866Z,82.51
2023-01-20T14:50:40.978Z,82.77
2023-01-20T14:53:16.887Z,83.05
2023-01-20T14:56:02.231Z,83.15
2023-01-20T14:58:35.176Z,83.19
2023-01-20T15:01:08.488Z,83.28
2023-01-20T15:03:40.660Z,83.40
2023-01-20T15:06:24.071Z,83.47
2023-01-20T15:09:06.460Z,83.68
2023-01-20T15:11:40.059Z,83.99
2023-01-20T15:14:14.627Z,84.29
2023-01-20T15:16:51.151Z,84.52
2023-01-20T15:19:47.309Z,84.73
2023-01-20T15:22:27.964Z,84.90
2023-01-20T15:25:13.058Z,85.09
2023-01-20T15:27:45.488Z,85.32
2023-01-20T15:30:21.408Z,85.44
2023-01-20T15:32:55.740Z,85.61
2023-01-20T15:35:31.783Z,85.91
2023-01-20T15:38:13.011Z,85.94
2023-01-20T15:40:45.750Z,86.17
2023-01-20T15:43:19.967Z,86.42
2023-01-20T15:45:52.237Z,86.52
2023-01-20T15:48:27.303Z,86.68
2023-01-20T15:50:59.686Z,86.85
2023-01-20T15:53:32.300Z,86.84
2023-01-20T15:56:06.377Z,87.03
2023-01-20T15:58:40.332Z,87.10
2023-01-20T16:01:21.074Z,87.16
2023-01-20T16:03:55.036Z,87.36
2023-01-20T16:06:31.807Z,87.48
2023-01-20T16:09:14.980Z,87.64
2023-01-20T16:11:47.661Z,87.85
2023-01-20T16:14:19.935Z,87.85
2023-01-20T16:16:52.503Z,87.94
2023-01-20T16:19:24.717Z,87.98
2023-01-20T16:21:59.882Z,88.15
2023-01-20T16:24:32.221Z,88.31
2023-01-20T16:27:03.738Z,88.39
2023-01-20T16:29:36.096Z,88.42
2023-01-20T16:32:08.795Z,88.72
2023-01-20T16:34:41.232Z,88.64
2023-01-20T16:37:13.768Z,88.75
2023-01-20T16:39:44.285Z,88.89
2023-01-20T16:42:17.618Z,88.81
2023-01-20T16:44:50.055Z,88.66
2023-01-20T16:47:22.541Z,88.74
2023-01-20T16:49:54.731Z,88.67
2023-01-20T16:52:27.196Z,88.68
2023-01-20T16:54:57.803Z,88.88
2023-01-20T16:57:30.037Z,88.96
2023-01-20T17:00:02.352Z,88.98
2023-01-20T17:02:35.281Z,89.02
2023-01-20T17:05:09.195Z,89.18
2023-01-20T17:07:41.544Z,89.18
2023-01-20T17:10:13.571Z,89.12
2023-01-20T17:12:48.652Z,89.08
2023-01-20T17:15:21.925Z,89.13
2023-01-20T17:17:56.721Z,89.12
2023-01-20T17:20:32.566Z,89.06
2023-01-20T17:23:07.920Z,89.03
2023-01-20T17:25:41.117Z,88.86
2023-01-20T17:28:13.443Z,88.88
2023-01-20T17:30:45.690Z,88.85
2023-01-20T17:33:17.942Z,88.79
2023-01-20T17:35:59.570Z,88.67
2023-01-20T17:38:33.396Z,88.58
2023-01-20T17:41:06.659Z,88.46
2023-01-20T17:43:40.909Z,88.56
2023-01-20T17:46:18.286Z,88.43
2023-01-20T17:48:51.091Z,88.45
2023-01-20T17:51:25.208Z,88.36
2023-01-20T17:54:03.787Z,88.33
2023-01-20T17:56:36.641Z,88.36
2023-01-20T17:59:07.586Z,88.36
2023-01-20T18:01:40.386Z,88.31
2023-01-20T18:04:12.563Z,88.52
2023-01-20T18:06:45.004Z,88.58
2023-01-20T18:09:17.735Z,88.73
2023-01-20T18:11:49.965Z,88.78
2023-01-20T18:14:20.590Z,88.77
2023-01-20T18:16:56.210Z,88.98
2023-01-20T18:19:28.950Z,89.06
2023-01-20T18:22:07.008Z,88.93
2023-01-20T18:24:39.496Z,89.12
2023-01-20T18:27:14.927Z,89.22
2023-01-20T18:29:47.175Z,89.29
2023-01-20T18:32:18.007Z,89.33
2023-01-20T18:34:50.878Z,89.37
2023-01-20T18:37:23.096Z,89.39
2023-01-20T18:39:55.268Z,89.40
2023-01-20T18:42:28.303Z,89.48
2023-01-20T18:45:01.709Z,89.45
2023-01-20T18:47:34.374Z,89.73
2023-01-20T18:50:07.873Z,89.69
2023-01-20T18:52:40.510Z,89.81
2023-01-20T18:55:15.662Z,89.93
2023-01-20T18:57:48.107Z,90.06
2023-01-20T19:00:21.489Z,90.14
2023-01-20T19:02:54.316Z,90.21
2023-01-20T19:05:36.252Z,90.19
2023-01-20T19:08:08.853Z,90.15
2023-01-20T19:10:41.144Z,90.22
2023-01-20T19:13:14.211Z,90.23
2023-01-20T19:15:46.573Z,90.41
2023-01-20T19:18:17.363Z,90.41
2023-01-20T19:20:49.554Z,90.42
2023-01-20T19:23:22.016Z,90.51
2023-01-20T19:26:03.598Z,90.59
2023-01-20T19:28:36.513Z,90.68
2023-01-20T19:31:13.842Z,90.70
2023-01-20T19:34:06.943Z,90.84
2023-01-20T19:36:39.701Z,91.10
2023-01-20T19:39:13.069Z,91.18
2023-01-20T19:41:45.907Z,91.25
2023-01-20T19:44:23.511Z,91.33
2023-01-20T19:46:58.869Z,91.38
2023-01-20T19:49:31.995Z,91.33
2023-01-20T19:52:04.661Z,91.41
2023-01-20T19:54:51.719Z,91.49
2023-01-20T19:57:27.467Z,91.73
2023-01-20T20:00:06.634Z,92.18
2023-01-20T20:02:45.553Z,92.65
2023-01-20T20:05:26.993Z,93.02
2023-01-20T20:08:14.110Z,93.39
2023-01-20T20:10:51.380Z,93.59
2023-01-20T20:13:37.878Z,93.85
2023-01-20T20:16:11.113Z,94.32
2023-01-20T20:18:43.241Z,94.72
2023-01-20T20:21:15.630Z,95.53
2023-01-20T20:23:50.005Z,96.08
2023-01-20T20:26:23.757Z,96.70
2023-01-20T20:28:56.449Z,97.32
2023-01-20T20:31:29.641Z,97.65
2023-01-20T20:34:03.501Z,97.92
2023-01-20T20:36:36.121Z,98.31
2023-01-20T20:39:08.934Z,98.74
2023-01-20T20:41:41.085Z,98.87
2023-01-20T20:44:12.385Z,99.22
2023-01-20T20:46:44.812Z,99.55
2023-01-20T20:49:17.691Z,99.77
2023-01-20T20:51:50.251Z,99.94
2023-01-20T20:54:22.425Z,100.00
2023-01-20T20:56:52.937Z,100.00
2023-01-20T20:59:25.650Z,100.00
2023-01-20T21:01:58.094Z,100.00
2023-01-20T21:04:31.346Z,100.00
2023-01-20T21:07:03.372Z,100.00
2023-01-20T21:09:34.982Z,100.00
2023-01-20T21:12:07.536Z,100.00
2023-01-20T21:14:40.196Z,100.00
2023-01-20T21:17:12.404Z,100.00
2023-01-20T21:19:44.605Z,100.00
2023-01-20T21:22:15.418Z,100.00
2023-01-20T21:24:47.529Z,100.00
2023-01-20T21:27:22.826Z,100.00
2023-01-20T21:29:53.354Z,100.00
2023-01-20T21:32:25.768Z,100.00
2023-01-20T21:34:56.260Z,100.00
2023-01-20T21:37:28.592Z,100.00
2023-01-20T21:40:00.907Z,100.00
2023-01-20T21:42:33.431Z,100.00
2023-01-20T21:45:06.167Z,100.00
2023-01-20T21:47:38.358Z,100.00
2023-01-20T21:50:30.047Z,100.00
2023-01-20T21:53:02.356Z,100.00
2023-01-20T21:55:34.369Z,100.00
2023-01-20T21:58:06.673Z,100.00
2023-01-20T22:00:38.940Z,100.00
2023-01-20T22:03:11.509Z,100.00
2023-01-20T22:05:46.239Z,100.00
2023-01-20T22:08:18.339Z,100.00
2023-01-20T22:10:55.850Z,100.00
2023-01-20T22:13:28.037Z,100.00
2023-01-20T22:16:02.405Z,100.00
2023-01-20T22:18:34.865Z,100.00
2023-01-20T22:21:08.570Z,100.00
2023-01-20T22:23:40.939Z,100.00
2023-01-20T22:26:13.252Z,100.00
2023-01-20T22:28:45.710Z,100.00
2023-01-20T22:31:23.426Z,100.00
2023-01-20T22:33:57.335Z,100.00
2023-01-20T22:36:29.635Z,100.00
2023-01-20T22:39:00.239Z,100.00
2023-01-20T22:41:32.998Z,100.00
2023-01-20T22:44:05.704Z,100.00
2023-01-20T22:46:38.320Z,100.00
2023-01-20T22:49:12.368Z,100.00
2023-01-20T22:51:54.649Z,100.00
2023-01-20T22:54:26.955Z,100.00
2023-01-20T22:56:58.990Z,100.00
2023-01-20T22:59:31.500Z,100.00
2023-01-20T23:02:06.341Z,100.00
2023-01-20T23:04:38.609Z,100.00
2023-01-20T23:07:10.778Z,100.00
2023-01-20T23:09:41.415Z,100.00
2023-01-20T23:12:13.713Z,100.00
2023-01-20T23:14:59.640Z,100.00
2023-01-20T23:17:34.678Z,100.00
2023-01-20T23:20:09.084Z,100.00
2023-01-20T23:22:39.550Z,100.00
2023-01-20T23:25:12.320Z,100.00
2023-01-20T23:27:42.923Z,100.00
2023-01-20T23:30:14.190Z,100.00
2023-01-20T23:32:45.691Z,100.00
2023-01-20T23:35:16.361Z,100.00
2023-01-20T23:37:47.314Z,100.00
2023-01-20T23:40:18.845Z,100.00
2023-01-20T23:42:49.744Z,100.00
2023-01-20T23:45:20.422Z,100.00
2023-01-20T23:47:50.940Z,100.00
2023-01-20T23:50:21.864Z,100.00
2023-01-20T23:52:52.304Z,100.00
2023-01-20T23:55:22.972Z,100.00
2023-01-20T23:57:53.518Z,100.00
